Time;durP1;ratioP1;P1;durP2;ratioP2;P2;SDS_P1;SDS_P2;PMS_P1;PMS_P2;Temp;Humidity;BMP_temperature;BMP_pressure;BME280_temperature;BME280_humidity;BME280_pressure;Samples;Min_cycle;Max_cycle;Signal;HPM_P1;HPM_P2
2023/04/15 00:01:20;;;;;;;9.73;4.10;;;;;;;9.58;95.39;100900.47;5066115;28;20387;-63
2023/04/15 00:03:46;;;;;;;9.80;3.92;;;;;;;9.66;95.49;100902.03;5067801;28;20119;-62
2023/04/15 00:06:12;;;;;;;9.88;3.88;;;;;;;9.57;96.17;100904.00;5065946;28;20032;-61
2023/04/15 00:08:38;;;;;;;9.13;4.22;;;;;;;9.53;96.45;100906.75;5067468;28;20047;-61
2023/04/15 00:11:04;;;;;;;9.98;4.22;;;;;;;9.44;96.66;100905.25;5066112;28;20471;-62
2023/04/15 00:13:31;;;;;;;10.07;4.55;;;;;;;9.37;97.75;100907.22;5067494;28;20528;-63
2023/04/15 00:15:57;;;;;;;10.65;4.40;;;;;;;9.26;98.66;100909.25;5059411;28;20044;-63
2023/04/15 00:18:23;;;;;;;12.20;4.65;;;;;;;9.10;99.24;100914.94;5065998;28;20097;-61
2023/04/15 00:20:48;;;;;;;7.90;4.65;;;;;;;8.99;99.28;100902.06;5067741;28;20050;-62
2023/04/15 00:23:14;;;;;;;12.27;4.35;;;;;;;8.92;99.77;100909.28;5065904;28;20127;-62
2023/04/15 00:25:39;;;;;;;10.23;4.43;;;;;;;8.72;100.00;100915.00;5067030;28;20054;-62
2023/04/15 00:28:05;;;;;;;11.02;4.72;;;;;;;8.58;100.00;100921.47;5066840;28;20024;-62
2023/04/15 00:30:30;;;;;;;9.20;4.88;;;;;;;8.67;100.00;100911.66;5065657;28;20444;-63
2023/04/15 00:32:55;;;;;;;9.57;4.68;;;;;;;8.59;100.00;100915.34;5068039;28;20652;-62
2023/04/15 00:35:21;;;;;;;6.95;4.38;;;;;;;8.62;100.00;100913.50;5065844;28;20403;-62
2023/04/15 00:37:46;;;;;;;6.10;4.45;;;;;;;8.66;100.00;100912.53;5067105;28;20672;-62
2023/04/15 00:40:12;;;;;;;11.73;4.40;;;;;;;8.64;100.00;100917.81;5066890;28;20071;-62
2023/04/15 00:42:38;;;;;;;7.93;4.70;;;;;;;8.60;100.00;100916.19;5066154;28;20095;-62
2023/04/15 00:45:04;;;;;;;9.75;4.65;;;;;;;8.61;100.00;100911.81;5065413;28;20032;-61
2023/04/15 00:47:30;;;;;;;11.60;4.72;;;;;;;8.56;100.00;100918.03;5066779;28;20032;-61
2023/04/15 00:49:56;;;;;;;10.80;4.72;;;;;;;8.58;100.00;100918.84;5066018;28;20020;-63
2023/04/15 00:52:22;;;;;;;11.00;4.72;;;;;;;8.63;99.91;100916.09;5067078;28;20024;-63
2023/04/15 00:54:47;;;;;;;10.32;4.40;;;;;;;8.64;99.60;100917.81;5049206;28;20414;-61
2023/04/15 00:57:12;;;;;;;13.05;4.35;;;;;;;8.62;99.88;100914.38;5065694;28;20097;-63
2023/04/15 00:59:38;;;;;;;9.70;5.28;;;;;;;8.61;100.00;100911.81;5066178;28;20024;-62
2023/04/15 01:02:04;;;;;;;8.40;4.90;;;;;;;8.60;99.38;100913.56;5065513;28;20104;-62
2023/04/15 01:04:30;;;;;;;9.20;4.65;;;;;;;8.60;98.14;100916.19;5066468;28;20054;-62
2023/04/15 01:06:56;;;;;;;10.25;4.80;;;;;;;8.61;98.71;100923.16;5065414;28;20032;-62
2023/04/15 01:09:21;;;;;;;10.82;4.90;;;;;;;8.59;98.21;100920.59;5066506;28;20571;-61
2023/04/15 01:11:46;;;;;;;11.13;5.10;;;;;;;8.52;99.00;100913.69;5065006;28;20032;-63
2023/04/15 01:14:12;;;;;;;10.95;5.03;;;;;;;8.52;99.03;100913.69;5064872;28;20074;-63
2023/04/15 01:16:38;;;;;;;9.07;4.18;;;;;;;8.51;99.00;100922.50;5064567;28;20036;-61
2023/04/15 01:19:07;;;;;;;11.35;5.05;;;;;;;8.48;99.13;100922.56;5047315;28;20627;-62
2023/04/15 01:21:36;;;;;;;9.82;4.60;;;;;;;8.44;99.51;100919.16;5048751;28;20033;-62
2023/04/15 01:24:01;;;;;;;8.80;4.82;;;;;;;8.46;99.75;100924.38;5065141;28;20237;-63
2023/04/15 01:26:27;;;;;;;11.48;4.45;;;;;;;8.46;99.77;100919.13;5049413;28;20519;-61
2023/04/15 01:28:52;;;;;;;8.05;4.95;;;;;;;8.46;100.00;100919.97;5032967;28;20482;-61
2023/04/15 01:31:17;;;;;;;6.82;4.57;;;;;;;8.44;100.00;100916.53;5069493;28;20050;-63
2023/04/15 01:33:43;;;;;;;8.25;5.28;;;;;;;8.43;100.00;100921.81;5071673;28;20028;-62
2023/04/15 01:36:09;;;;;;;9.70;4.85;;;;;;;8.47;100.00;100918.22;5070112;28;20024;-62
2023/04/15 01:38:35;;;;;;;7.15;4.90;;;;;;;8.43;100.00;100925.28;5071400;28;20616;-61
2023/04/15 01:41:01;;;;;;;12.57;5.75;;;;;;;8.41;100.00;100920.97;5071280;28;20044;-62
2023/04/15 01:43:27;;;;;;;11.43;4.95;;;;;;;8.42;100.00;100922.69;5070011;28;20048;-61
2023/04/15 01:45:52;;;;;;;12.00;5.20;;;;;;;8.38;100.00;100931.56;5069521;28;20047;-63
2023/04/15 01:48:18;;;;;;;9.40;5.35;;;;;;;8.33;100.00;100927.28;5069256;28;20033;-61
2023/04/15 01:50:43;;;;;;;12.05;5.57;;;;;;;8.34;100.00;100936.03;5071234;28;20025;-63
2023/04/15 01:53:09;;;;;;;8.38;4.93;;;;;;;8.20;100.00;100926.69;5070506;28;20047;-62
2023/04/15 01:55:35;;;;;;;14.98;5.53;;;;;;;8.11;100.00;100933.91;5069203;28;20024;-62
2023/04/15 01:58:00;;;;;;;8.68;5.45;;;;;;;8.02;100.00;100932.34;5069796;28;20164;-64
2023/04/15 02:00:26;;;;;;;7.80;5.20;;;;;;;7.92;100.00;100929.06;5068941;28;20020;-63
2023/04/15 02:02:51;;;;;;;9.40;5.65;;;;;;;7.86;100.00;100935.31;5051756;28;20028;-63
2023/04/15 02:05:16;;;;;;;12.43;4.95;;;;;;;7.77;100.00;100931.09;5069686;28;20035;-61
2023/04/15 02:07:45;;;;;;;9.40;5.63;;;;;;;7.78;100.00;100931.97;5068162;28;20483;-62
2023/04/15 02:10:12;;;;;;;9.32;5.93;;;;;;;7.84;100.00;100932.72;5051118;28;20105;-62
2023/04/15 02:12:37;;;;;;;8.43;5.40;;;;;;;7.72;100.00;100930.34;5068966;28;20020;-62
2023/04/15 02:15:03;;;;;;;12.85;6.20;;;;;;;7.66;100.00;100931.34;5068429;28;20040;-62
2023/04/15 02:17:29;;;;;;;9.30;5.88;;;;;;;7.61;100.00;100935.78;5070154;28;20508;-62
2023/04/15 02:19:55;;;;;;;12.65;5.85;;;;;;;7.54;100.00;100932.44;5068757;28;20025;-62
2023/04/15 02:22:21;;;;;;;7.85;5.85;;;;;;;7.44;100.00;100934.38;5068918;28;20101;-61
2023/04/15 02:24:46;;;;;;;11.02;6.35;;;;;;;7.39;100.00;100940.59;5068368;28;20463;-61
2023/04/15 02:27:16;;;;;;;13.30;6.45;;;;;;;7.38;100.00;100938.88;5069368;28;20518;-62
2023/04/15 02:29:42;;;;;;;11.93;5.70;;;;;;;7.35;100.00;100944.16;5068576;28;20049;-60
2023/04/15 02:32:07;;;;;;;12.20;6.25;;;;;;;7.25;100.00;100946.97;5067927;28;20534;-62
2023/04/15 02:34:33;;;;;;;14.68;6.65;;;;;;;7.23;100.00;100956.63;5068920;28;20029;-63
2023/04/15 02:36:58;;;;;;;7.78;6.55;;;;;;;7.19;100.00;100955.81;5069055;28;20064;-61
2023/04/15 02:39:23;;;;;;;7.93;5.85;;;;;;;7.15;100.00;100946.28;5069167;28;20482;-61
2023/04/15 02:41:52;;;;;;;10.75;6.82;;;;;;;7.08;100.00;100963.00;5068210;28;20079;-62
2023/04/15 02:44:19;;;;;;;17.83;6.57;;;;;;;7.10;100.00;100960.34;5067945;28;20031;-62
2023/04/15 02:46:49;;;;;;;14.00;6.63;;;;;;;7.06;100.00;100965.66;5068963;28;20032;-62
2023/04/15 02:49:15;;;;;;;12.60;6.47;;;;;;;7.11;100.00;100964.69;5068785;28;20035;-62
2023/04/15 02:51:40;;;;;;;10.80;6.28;;;;;;;7.01;100.00;100967.47;5068522;28;20025;-62
2023/04/15 02:54:06;;;;;;;13.93;6.13;;;;;;;6.98;100.00;100970.13;5051024;28;20150;-61
2023/04/15 02:56:32;;;;;;;9.63;6.30;;;;;;;6.92;100.00;100978.09;5068347;28;20055;-63
2023/04/15 02:58:57;;;;;;;9.90;6.22;;;;;;;7.00;100.00;100986.69;5069205;28;20020;-63
2023/04/15 03:01:22;;;;;;;10.50;6.22;;;;;;;6.96;100.00;100982.41;5068658;28;20021;-61
2023/04/15 03:03:48;;;;;;;12.35;6.18;;;;;;;6.99;100.00;100982.38;5067844;28;20189;-62
2023/04/15 03:06:13;;;;;;;10.27;6.13;;;;;;;6.96;100.00;100979.78;5068928;28;20682;-61
2023/04/15 03:08:39;;;;;;;11.27;6.88;;;;;;;6.96;100.00;100979.78;5068142;28;20032;-62
2023/04/15 03:11:04;;;;;;;9.98;6.13;;;;;;;6.91;100.00;100986.84;5068697;28;20030;-62
2023/04/15 03:13:30;;;;;;;8.30;6.55;;;;;;;6.92;100.00;100980.72;5068887;28;20419;-62
2023/04/15 03:15:56;;;;;;;10.80;6.13;;;;;;;6.90;100.00;100987.75;5067106;28;20685;-61
2023/04/15 03:18:22;;;;;;;10.73;6.45;;;;;;;6.90;100.00;100987.75;5068042;28;20048;-62
2023/04/15 03:20:47;;;;;;;8.52;6.30;;;;;;;6.87;100.00;100979.94;5067215;28;20459;-62
2023/04/15 03:23:12;;;;;;;9.15;6.50;;;;;;;6.91;100.00;100985.09;5068586;28;20489;-63
2023/04/15 03:25:38;;;;;;;9.05;5.82;;;;;;;6.89;100.00;100993.88;5068429;28;20016;-62
2023/04/15 03:28:03;;;;;;;12.02;6.43;;;;;;;6.89;100.00;100988.66;5067355;28;20178;-63
2023/04/15 03:30:29;;;;;;;13.07;6.97;;;;;;;6.80;100.00;100992.25;5050179;28;20017;-63
2023/04/15 03:32:54;;;;;;;11.25;6.50;;;;;;;6.75;100.00;100994.97;5067561;28;20115;-62
2023/04/15 03:35:19;;;;;;;8.18;6.55;;;;;;;6.76;100.00;100998.44;5068303;28;20500;-62
2023/04/15 03:37:45;;;;;;;10.68;6.32;;;;;;;6.77;100.00;101000.19;5068688;28;20191;-61
2023/04/15 03:40:10;;;;;;;12.50;6.50;;;;;;;6.68;100.00;101006.41;5048655;28;20036;-62
2023/04/15 03:42:36;;;;;;;10.35;6.47;;;;;;;6.82;100.00;101014.06;5067737;28;20031;-61
2023/04/15 03:45:02;;;;;;;8.30;5.70;;;;;;;6.86;100.00;101007.03;5048286;28;20032;-63
2023/04/15 03:47:27;;;;;;;9.05;6.40;;;;;;;6.74;100.00;101013.31;5068063;28;20020;-61
2023/04/15 03:49:52;;;;;;;9.82;6.13;;;;;;;6.74;100.00;101016.78;5049522;28;20029;-61
2023/04/15 03:52:18;;;;;;;12.18;6.53;;;;;;;6.73;100.00;101019.41;5067571;28;20025;-61
2023/04/15 03:54:43;;;;;;;14.10;7.45;;;;;;;6.66;100.00;101024.78;5067743;28;20036;-61
2023/04/15 03:57:08;;;;;;;13.30;6.60;;;;;;;6.70;100.00;101030.81;5049350;28;20027;-62
2023/04/15 03:59:34;;;;;;;8.88;6.60;;;;;;;6.66;100.00;101023.91;5067831;28;20020;-59
2023/04/15 04:01:59;;;;;;;14.05;6.90;;;;;;;6.62;100.00;101027.47;5067374;28;20066;-61
2023/04/15 04:04:25;;;;;;;12.57;6.90;;;;;;;6.55;100.00;101038.00;5067948;28;20167;-63
2023/04/15 04:06:50;;;;;;;10.65;6.72;;;;;;;6.55;100.00;101035.41;5067301;28;20035;-62
2023/04/15 04:09:16;;;;;;;15.90;7.00;;;;;;;6.50;100.00;101037.19;5056354;28;20143;-62
2023/04/15 04:11:41;;;;;;;13.07;7.22;;;;;;;6.51;100.00;101044.19;5051695;28;20032;-63
2023/04/15 04:14:06;;;;;;;8.95;6.28;;;;;;;6.49;100.00;101040.72;5066586;28;20683;-60
2023/04/15 04:16:32;;;;;;;11.25;7.15;;;;;;;6.57;100.00;101049.31;5067080;28;20045;-61
2023/04/15 04:18:57;;;;;;;10.52;6.63;;;;;;;6.60;100.00;101048.44;5066808;28;20028;-60
2023/04/15 04:21:22;;;;;;;10.50;6.40;;;;;;;6.64;100.00;101051.84;5063608;28;20024;-61
2023/04/15 04:23:48;;;;;;;10.60;6.97;;;;;;;6.64;100.00;101057.09;5067227;28;20052;-63
2023/04/15 04:26:13;;;;;;;15.80;7.47;;;;;;;6.56;100.00;101051.94;5066969;28;20024;-62
2023/04/15 04:28:39;;;;;;;11.45;6.82;;;;;;;6.57;100.00;101059.78;5066164;28;20021;-61
2023/04/15 04:31:06;;;;;;;9.30;6.70;;;;;;;6.56;100.00;101065.91;5065767;28;20031;-61
2023/04/15 04:33:31;;;;;;;11.13;6.80;;;;;;;6.62;100.00;101074.59;5049355;28;20035;-63
2023/04/15 04:35:57;;;;;;;11.32;7.50;;;;;;;6.62;100.00;101074.59;5066844;28;20025;-61
2023/04/15 04:38:22;;;;;;;11.00;7.70;;;;;;;6.56;100.00;101071.16;5066781;28;20024;-61
2023/04/15 04:40:47;;;;;;;13.65;7.40;;;;;;;6.52;100.00;101077.31;5059566;28;20028;-62
2023/04/15 04:43:14;;;;;;;9.40;7.10;;;;;;;6.51;100.00;101082.56;5060623;28;20024;-63
2023/04/15 04:45:40;;;;;;;10.88;7.70;;;;;;;6.55;100.00;101079.91;5066659;28;20028;-62
2023/04/15 04:48:07;;;;;;;16.48;7.65;;;;;;;6.59;100.00;101085.09;5067270;28;20328;-62
2023/04/15 04:50:33;;;;;;;14.23;7.43;;;;;;;6.59;100.00;101085.09;5067286;28;20024;-62
2023/04/15 04:52:59;;;;;;;14.90;9.55;;;;;;;6.55;100.00;101087.75;5049847;28;20028;-61
2023/04/15 04:55:24;;;;;;;12.65;6.88;;;;;;;6.54;100.00;101101.72;5061550;28;20025;-61
2023/04/15 04:57:50;;;;;;;13.75;7.40;;;;;;;6.50;100.00;101102.66;5067778;28;20410;-61
2023/04/15 05:00:16;;;;;;;14.38;7.70;;;;;;;6.50;100.00;101102.66;5053554;28;20115;-65
2023/04/15 05:02:42;;;;;;;12.65;7.40;;;;;;;6.46;100.00;101108.81;5068931;28;20019;-61
2023/04/15 05:05:08;;;;;;;13.23;7.80;;;;;;;6.53;100.00;101113.09;5065980;28;20024;-62
2023/04/15 05:07:34;;;;;;;13.30;7.72;;;;;;;6.53;100.00;101110.47;5066421;28;20020;-62
2023/04/15 05:09:59;;;;;;;10.20;7.45;;;;;;;6.52;100.00;101121.84;5068100;28;20056;-59
2023/04/15 05:12:25;;;;;;;9.70;7.47;;;;;;;6.49;100.00;101131.47;5066506;28;20028;-62
2023/04/15 05:14:51;;;;;;;15.60;7.40;;;;;;;6.48;100.00;101128.00;5065231;28;20035;-62
2023/04/15 05:17:16;;;;;;;13.18;7.50;;;;;;;6.54;100.00;101133.13;5047718;28;20025;-62
2023/04/15 05:19:41;;;;;;;13.07;8.45;;;;;;;6.42;100.00;101141.16;5066082;28;20028;-62
2023/04/15 05:22:07;;;;;;;12.48;7.97;;;;;;;6.54;100.00;101146.22;5066081;28;20023;-65
2023/04/15 05:24:32;;;;;;;12.55;7.70;;;;;;;6.43;100.00;101148.13;5065217;28;20017;-62
2023/04/15 05:26:57;;;;;;;12.77;8.32;;;;;;;6.44;100.00;101155.94;5066083;28;20078;-62
2023/04/15 05:29:23;;;;;;;13.75;7.93;;;;;;;6.52;100.00;101161.09;5047417;28;20086;-62
2023/04/15 05:31:48;;;;;;;13.70;8.15;;;;;;;6.56;100.00;101157.56;5065807;28;20032;-62
2023/04/15 05:34:15;;;;;;;12.50;7.78;;;;;;;6.43;100.00;101161.19;5067100;28;20497;-61
2023/04/15 05:36:40;;;;;;;18.58;8.45;;;;;;;6.46;100.00;101174.25;5066913;28;20514;-61
2023/04/15 05:39:06;;;;;;;14.65;8.70;;;;;;;6.56;100.00;101180.25;5066526;28;20116;-61
2023/04/15 05:41:31;;;;;;;12.07;8.10;;;;;;;6.68;100.00;101189.72;5067266;28;20100;-65
2023/04/15 05:43:57;;;;;;;14.52;8.10;;;;;;;6.66;100.00;101191.50;5035171;28;20367;-62
2023/04/15 05:46:22;;;;;;;12.23;8.02;;;;;;;6.80;100.00;101194.81;5058675;28;20025;-62
2023/04/15 05:48:47;;;;;;;11.15;8.35;;;;;;;6.86;100.00;101204.34;5046430;28;20036;-61
2023/04/15 05:51:13;;;;;;;14.27;7.40;;;;;;;6.92;100.00;101208.63;5029665;28;20028;-62
2023/04/15 05:53:40;;;;;;;10.57;7.93;;;;;;;7.04;100.00;101218.97;5047154;28;20558;-62
2023/04/15 05:56:06;;;;;;;12.38;7.47;;;;;;;7.14;100.00;101219.72;5029205;28;20498;-62
2023/04/15 05:58:31;;;;;;;10.38;7.32;;;;;;;7.24;100.00;101227.44;5062657;28;20033;-61
2023/04/15 06:00:56;;;;;;;12.15;7.45;;;;;;;7.31;100.00;101236.94;5066619;28;20070;-62
2023/04/15 06:03:22;;;;;;;11.18;7.50;;;;;;;7.42;100.00;101242.06;5047547;28;20031;-69
2023/04/15 06:05:48;;;;;;;14.77;7.78;;;;;;;7.44;100.00;101241.13;5066894;28;20467;-61
2023/04/15 06:08:13;;;;;;;14.15;7.93;;;;;;;7.36;100.00;101250.88;5063921;28;20117;-61
2023/04/15 06:10:39;;;;;;;12.95;8.55;;;;;;;7.31;100.00;101250.94;5045769;28;20016;-62
2023/04/15 06:13:04;;;;;;;14.05;7.75;;;;;;;7.51;100.00;101259.41;5065941;28;20025;-61
2023/04/15 06:15:30;;;;;;;11.07;7.50;;;;;;;7.63;100.00;101260.97;5066636;28;20495;-62
2023/04/15 06:17:56;;;;;;;17.15;7.88;;;;;;;7.73;100.00;101270.44;5070972;28;20021;-61
2023/04/15 06:20:21;;;;;;;11.82;7.50;;;;;;;7.82;100.00;101275.56;5070052;28;20161;-62
2023/04/15 06:22:46;;;;;;;11.70;7.78;;;;;;;7.74;100.00;101287.94;5070453;28;20459;-62
2023/04/15 06:25:12;;;;;;;14.65;8.10;;;;;;;8.01;100.00;101290.16;5052021;28;20033;-61
2023/04/15 06:27:37;;;;;;;9.90;7.82;;;;;;;7.97;100.00;101290.19;5068794;28;20027;-62
2023/04/15 06:30:03;;;;;;;12.00;7.85;;;;;;;8.08;100.00;101304.91;5066043;28;20021;-62
2023/04/15 06:32:29;;;;;;;15.10;7.88;;;;;;;8.07;100.00;101306.66;5066530;28;20430;-61
2023/04/15 06:34:54;;;;;;;13.48;7.75;;;;;;;8.19;100.00;101310.00;5050421;28;20110;-60
2023/04/15 06:37:19;;;;;;;11.45;7.53;;;;;;;8.41;100.00;101314.88;5066803;28;20368;-61
2023/04/15 06:39:45;;;;;;;10.75;7.90;;;;;;;8.36;100.00;101319.34;5066253;28;20055;-61
2023/04/15 06:42:10;;;;;;;15.05;7.50;;;;;;;8.44;100.00;101320.97;5047399;28;20435;-62
2023/04/15 06:44:36;;;;;;;10.63;7.80;;;;;;;8.56;100.00;101322.53;5054391;28;20029;-62
2023/04/15 06:47:02;;;;;;;10.65;7.45;;;;;;;8.62;100.00;101325.94;5062114;28;20039;-62
2023/04/15 06:49:27;;;;;;;9.52;7.40;;;;;;;8.55;100.00;101333.91;5069499;28;20029;-63
2023/04/15 06:51:53;;;;;;;9.57;7.53;;;;;;;8.44;100.00;101330.59;5067544;28;20028;-63
2023/04/15 06:54:18;;;;;;;12.20;7.55;;;;;;;8.69;100.00;101330.16;5065849;28;20108;-60
2023/04/15 06:56:43;;;;;;;12.60;8.02;;;;;;;8.55;100.00;101336.53;5067671;28;20089;-61
2023/04/15 06:59:09;;;;;;;11.90;7.20;;;;;;;8.47;100.00;101336.66;5059760;28;20108;-60
2023/04/15 07:01:34;;;;;;;12.75;7.72;;;;;;;8.41;100.00;101341.13;5052431;28;20368;-63
2023/04/15 07:04:00;;;;;;;10.35;7.65;;;;;;;8.55;100.00;101340.94;5067757;28;20024;-61
2023/04/15 07:06:26;;;;;;;11.13;7.65;;;;;;;8.75;100.00;101342.31;5049774;28;20027;-60
2023/04/15 07:08:51;;;;;;;13.57;8.13;;;;;;;8.83;100.00;101341.31;5068279;28;20025;-61
2023/04/15 07:11:17;;;;;;;12.07;7.65;;;;;;;8.88;100.00;101348.25;5067664;28;20351;-63
2023/04/15 07:13:42;;;;;;;13.27;7.50;;;;;;;9.05;100.00;101347.91;5068499;28;20019;-62
2023/04/15 07:16:08;;;;;;;11.43;7.82;;;;;;;9.14;100.00;101352.13;5067112;28;20398;-60
2023/04/15 07:18:33;;;;;;;9.95;8.20;;;;;;;9.25;100.00;101351.91;5068947;28;20035;-61
2023/04/15 07:20:59;;;;;;;14.50;7.78;;;;;;;9.33;100.00;101355.28;5057392;28;20075;-59
2023/04/15 07:23:24;;;;;;;13.10;7.95;;;;;;;9.41;100.00;101357.72;5055600;28;20117;-62
2023/04/15 07:25:51;;;;;;;9.93;7.88;;;;;;;9.44;100.00;101362.91;5067080;28;20035;-62
2023/04/15 07:28:16;;;;;;;9.77;7.47;;;;;;;9.49;100.00;101368.97;5059380;28;20111;-64
2023/04/15 07:30:41;;;;;;;10.18;6.43;;;;;;;9.63;100.00;101366.03;5056552;28;20021;-62
2023/04/15 07:33:07;;;;;;;10.50;7.00;;;;;;;9.73;100.00;101374.59;5062616;28;20062;-61
2023/04/15 07:35:32;;;;;;;10.70;7.60;;;;;;;9.82;100.00;101382.28;5065280;28;20013;-61
2023/04/15 07:37:57;;;;;;;13.23;7.55;;;;;;;9.90;100.00;101389.16;5057126;28;20375;-61
2023/04/15 07:40:23;;;;;;;9.88;7.72;;;;;;;9.88;100.00;101389.19;5059965;28;20519;-60
2023/04/15 07:42:48;;;;;;;11.20;7.93;;;;;;;9.90;100.00;101389.16;5063915;28;20487;-61
2023/04/15 07:45:15;;;;;;;10.32;7.85;;;;;;;10.08;100.00;101398.38;5045777;28;20108;-61
2023/04/15 07:47:41;;;;;;;13.35;8.10;;;;;;;10.09;100.00;101392.25;5047052;28;20037;-58
2023/04/15 07:50:08;;;;;;;11.40;7.50;;;;;;;10.14;100.00;101402.69;5063412;28;20016;-61
2023/04/15 07:52:37;;;;;;;8.80;7.72;;;;;;;10.35;100.00;101404.78;5060189;28;20059;-59
2023/04/15 07:55:09;;;;;;;15.32;7.35;;;;;;;10.41;100.00;101403.78;5067348;28;20093;-59
2023/04/15 07:57:35;;;;;;;11.88;8.13;;;;;;;10.38;100.00;101417.00;5049599;28;20074;-61
2023/04/15 08:00:02;;;;;;;8.85;7.10;;;;;;;10.52;100.00;101424.63;5065802;28;20070;-62
2023/04/15 08:02:28;;;;;;;9.02;7.32;;;;;;;10.54;100.00;101425.44;5068565;28;20484;-62
2023/04/15 08:04:53;;;;;;;10.82;7.78;;;;;;;10.74;100.00;101439.91;5066222;28;20028;-62
2023/04/15 08:07:18;;;;;;;11.15;7.78;;;;;;;10.95;100.00;101440.25;5065796;28;20464;-61
2023/04/15 08:09:45;;;;;;;12.88;7.47;;;;;;;10.79;100.00;101443.31;5067198;28;20025;-61
2023/04/15 08:12:12;;;;;;;10.63;7.18;;;;;;;10.69;100.00;101441.81;5064356;28;20337;-60
2023/04/15 08:14:37;;;;;;;9.73;7.18;;;;;;;10.60;100.00;101453.44;5047965;28;20021;-62
2023/04/15 08:17:03;;;;;;;10.20;6.93;;;;;;;10.97;100.00;101454.28;5065268;28;20051;-59
2023/04/15 08:19:29;;;;;;;12.38;8.20;;;;;;;11.07;100.00;101463.69;5064901;28;20336;-60
2023/04/15 08:21:54;;;;;;;10.60;7.88;;;;;;;11.07;100.00;101471.59;5066035;28;20596;-62
2023/04/15 08:24:20;;;;;;;9.23;7.40;;;;;;;11.19;100.00;101466.91;5062650;28;20494;-59
2023/04/15 08:26:46;;;;;;;10.02;7.88;;;;;;;10.85;100.00;101466.88;5060637;28;20474;-60
2023/04/15 08:29:11;;;;;;;12.55;8.10;;;;;;;10.68;100.00;101477.81;5062447;28;20498;-61
2023/04/15 08:31:36;;;;;;;10.40;7.13;;;;;;;10.67;100.00;101484.00;5062330;28;20095;-60
2023/04/15 08:34:02;;;;;;;12.77;7.82;;;;;;;10.85;100.00;101482.69;5045842;28;20020;-61
2023/04/15 08:36:28;;;;;;;13.02;7.65;;;;;;;10.96;100.00;101498.22;5063081;28;20103;-60
2023/04/15 08:38:53;;;;;;;11.65;7.55;;;;;;;10.89;100.00;101490.53;5064990;28;20402;-59
2023/04/15 08:41:23;;;;;;;10.00;7.00;;;;;;;11.13;100.00;101496.94;5064252;28;20017;-60
2023/04/15 08:43:53;;;;;;;9.10;7.22;;;;;;;11.22;100.00;101495.84;5062969;28;20043;-61
2023/04/15 08:46:18;;;;;;;10.27;6.03;;;;;;;11.40;100.00;101504.16;5045502;28;20086;-61
2023/04/15 08:48:44;;;;;;;10.48;6.60;;;;;;;11.50;100.00;101509.16;5026078;28;20036;-60
2023/04/15 08:51:10;;;;;;;12.77;6.05;;;;;;;11.50;100.00;101510.97;5058487;28;20109;-61
2023/04/15 08:53:36;;;;;;;7.28;5.90;;;;;;;11.69;100.00;101518.34;5065254;28;20480;-60
2023/04/15 08:56:04;;;;;;;12.88;6.78;;;;;;;11.35;100.00;101515.72;5045498;28;20281;-61
2023/04/15 08:58:30;;;;;;;8.18;5.22;;;;;;;11.42;100.00;101529.63;5047354;28;20036;-62
2023/04/15 09:00:55;;;;;;;10.38;5.95;;;;;;;11.52;100.00;101522.31;5064084;28;20048;-61
2023/04/15 09:03:22;;;;;;;15.63;5.75;;;;;;;11.65;100.00;101524.63;5044400;28;20056;-60
2023/04/15 09:05:47;;;;;;;11.93;5.78;;;;;;;11.46;100.00;101528.63;5048002;28;20033;-63
2023/04/15 09:08:14;;;;;;;8.60;6.20;;;;;;;11.52;100.00;101537.28;5057651;28;20086;-61
2023/04/15 09:10:39;;;;;;;11.23;5.80;;;;;;;11.60;100.00;101540.59;5065533;28;20500;-60
2023/04/15 09:13:04;;;;;;;9.05;5.47;;;;;;;11.34;100.00;101542.13;5059946;28;20053;-60
2023/04/15 09:15:32;;;;;;;15.77;6.28;;;;;;;11.50;100.00;101530.28;5044342;28;20379;-61
2023/04/15 09:17:57;;;;;;;7.85;5.80;;;;;;;11.59;100.00;101542.34;5058042;28;20028;-62
2023/04/15 09:20:22;;;;;;;10.57;5.90;;;;;;;11.91;99.82;101546.78;5055304;28;20348;-62
2023/04/15 09:22:49;;;;;;;9.20;5.78;;;;;;;12.03;99.16;101543.81;5057324;28;20048;-61
2023/04/15 09:25:14;;;;;;;8.20;4.95;;;;;;;12.23;98.33;101551.19;5047327;28;20109;-60
2023/04/15 09:27:48;;;;;;;7.88;4.22;;;;;;;11.95;94.82;101564.31;5056009;28;20515;-59
2023/04/15 09:30:13;;;;;;;7.05;4.57;;;;;;;11.91;95.38;101570.56;5054165;28;20047;-60
2023/04/15 09:32:48;;;;;;;7.07;4.15;;;;;;;11.88;96.20;101576.78;5064929;28;20123;-60
2023/04/15 09:35:14;;;;;;;7.03;3.60;;;;;;;11.92;94.17;101580.22;5065505;28;20036;-60
2023/04/15 09:37:39;;;;;;;9.73;4.65;;;;;;;11.87;95.24;101583.84;5064309;28;20024;-54
2023/04/15 09:40:05;;;;;;;6.78;4.70;;;;;;;11.87;95.63;101581.19;5065565;28;20020;-57
2023/04/15 09:42:31;;;;;;;7.47;4.32;;;;;;;11.77;96.39;101576.22;5061928;28;20040;-59
2023/04/15 09:45:07;;;;;;;7.75;3.60;;;;;;;11.93;95.25;101588.13;5064520;28;20103;-60
2023/04/15 09:47:32;;;;;;;4.35;2.92;;;;;;;11.95;94.25;101588.06;5063888;28;20501;-60
2023/04/15 09:49:59;;;;;;;17.00;3.28;;;;;;;11.96;93.85;101587.16;5063778;28;20125;-58
2023/04/15 09:52:24;;;;;;;7.38;2.85;;;;;;;12.08;93.85;101589.50;5067281;28;20023;-59
2023/04/15 09:54:53;;;;;;;4.47;2.55;;;;;;;11.88;90.23;101598.78;5067858;28;20024;-57
2023/04/15 09:57:18;;;;;;;32.67;3.33;;;;;;;12.06;90.35;101591.28;5062884;28;20055;-58
2023/04/15 09:59:43;;;;;;;8.45;2.47;;;;;;;11.74;93.22;101596.53;5057213;28;20057;-61
2023/04/15 10:02:10;;;;;;;10.35;3.35;;;;;;;12.13;93.80;101608.72;5064121;28;20029;-59
2023/04/15 10:04:39;;;;;;;4.80;3.00;;;;;;;12.48;92.86;101597.16;5043895;28;20094;-62
2023/04/15 10:07:05;;;;;;;;;;;;;;;12.29;93.05;101605.63;5060406;28;20074;-57
2023/04/15 10:09:32;;;;;;;5.70;2.50;;;;;;;12.25;90.41;101607.50;5068530;28;19916;-63
2023/04/15 10:11:58;;;;;;;6.88;3.00;;;;;;;11.99;89.24;101611.72;5040928;28;20387;-54
2023/04/15 10:14:25;;;;;;;6.15;2.63;;;;;;;11.98;92.33;101614.41;5051804;28;20024;-53
2023/04/15 10:16:52;;;;;;;7.63;3.05;;;;;;;11.92;92.40;101625.13;5073978;28;20147;-56
2023/04/15 10:19:20;;;;;;;4.07;2.70;;;;;;;12.03;93.30;101622.16;5044367;28;20471;-61
2023/04/15 10:21:45;;;;;;;7.20;3.10;;;;;;;11.91;93.08;101618.09;5042050;28;20091;-58
2023/04/15 10:24:11;;;;;;;5.85;2.60;;;;;;;12.03;91.54;101624.81;5038935;28;20443;-59
2023/04/15 10:26:37;;;;;;;3.35;2.58;;;;;;;12.25;90.78;101622.47;5054816;28;20028;-60
2023/04/15 10:29:02;;;;;;;6.10;3.45;;;;;;;12.18;92.33;101620.91;5047133;28;20021;-56
2023/04/15 10:31:28;;;;;;;5.43;3.25;;;;;;;12.31;94.73;101632.88;5044363;28;20029;-58
2023/04/15 10:33:53;;;;;;;6.50;3.30;;;;;;;12.45;94.88;101623.69;5044398;28;20029;-58
2023/04/15 10:36:19;;;;;;;6.97;2.95;;;;;;;12.76;94.71;101622.75;5029360;28;20028;-61
2023/04/15 10:38:45;;;;;;;6.88;3.35;;;;;;;12.93;94.20;101627.53;5039823;28;20024;-58
2023/04/15 10:41:22;;;;;;;6.20;2.65;;;;;;;12.74;92.87;101625.44;5043625;28;20024;-60
2023/04/15 10:43:56;;;;;;;3.55;2.60;;;;;;;12.82;90.17;101638.44;5047180;28;20024;-60
2023/04/15 10:46:41;;;;;;;3.03;2.35;;;;;;;12.89;90.91;101633.84;5048976;28;20352;-60
2023/04/15 10:49:11;;;;;;;5.03;2.47;;;;;;;13.13;90.79;101626.03;5049396;28;20036;-62
2023/04/15 10:51:41;;;;;;;7.63;2.90;;;;;;;13.12;92.70;101634.88;5039972;28;20017;-60
2023/04/15 10:54:25;;;;;;;3.78;2.90;;;;;;;13.10;91.27;101637.56;5068331;28;20070;-56
2023/04/15 10:57:36;;;;;;;7.57;3.10;;;;;;;13.41;91.29;101635.72;5066166;28;20127;-59
2023/04/15 11:00:10;;;;;;;5.05;2.85;;;;;;;13.60;91.92;101646.59;5064196;28;20054;-60
2023/04/15 11:02:51;;;;;;;3.00;2.72;;;;;;;13.95;90.71;101642.78;5048174;28;20406;-55
2023/04/15 11:05:17;;;;;;;5.72;2.97;;;;;;;14.13;88.86;101643.91;5061744;28;20134;-58
2023/04/15 11:07:43;;;;;;;5.35;3.10;;;;;;;14.34;88.82;101644.91;5044467;28;20029;-60
2023/04/15 11:10:17;;;;;;;5.68;2.83;;;;;;;14.65;89.49;101649.06;5061966;28;20376;-58
2023/04/15 11:12:55;;;;;;;5.57;2.75;;;;;;;15.40;87.91;101648.81;5058412;28;20017;-55
2023/04/15 11:15:29;;;;;;;4.57;2.80;;;;;;;15.02;85.13;101654.75;5054780;28;20057;-57